Observations for LEEDS AND BRADFORD, United Kingdom (EGNM)

EGNM 182120Z 05007KT 020V090 CAVOK 05/04 Q1030  
EGNM 182050Z 05006KT 020V090 CAVOK 05/04 Q1030  
EGNM 182020Z 05006KT 020V100 CAVOK 05/04 Q1030  
EGNM 181950Z 05006KT 010V090 CAVOK 05/04 Q1030  
EGNM 181920Z 05005KT 020V080 CAVOK 05/04 Q1031  
EGNM 181850Z 05005KT 020V090 CAVOK 06/05 Q1030  
EGNM 181820Z 05006KT 020V090 CAVOK 06/04 Q1030  
EGNM 181750Z 06005KT 020V110 CAVOK 06/05 Q1030  
EGNM 181720Z 06006KT 030V090 CAVOK 06/05 Q1030  
EGNM 181650Z 07007KT CAVOK 07/05 Q1030  
EGNM 181620Z 07008KT 040V100 9999 FEW012 07/05 Q1030
EGNM 181550Z 07009KT 9999 FEW009 07/05 Q1030
EGNM 181520Z 07010KT 030V100 9999 FEW009 08/05 Q1030
EGNM 181450Z 07008KT 030V110 9999 FEW010 09/05 Q1031
EGNM 181420Z 07010KT 040V110 9999 FEW010 09/05 Q1031
EGNM 181350Z 06010KT 030V100 9999 FEW010 09/07 Q1030
EGNM 181320Z 05009KT 360V110 9999 SCT008 09/07 Q1031
EGNM 181250Z 06009KT 020V100 8000 FEW002 SCT004 09/07 Q1031 
EGNM 181220Z 06007KT 020V100 6000 SCT002 SCT004 08/07 Q1031 
EGNM 181150Z 05008KT 010V090 0600 R32/1000 FG SCT001 BKN002 07/07 Q1031 
EGNM 181120Z 05007KT 010V100 1100 R32/P1500 BR BKN002 07/06 Q1031   
EGNM 181050Z 06006KT 010V100 2800 BR BKN002 BKN005 07/06 Q1032  
EGNM 181020Z 06006KT 020V110 3600 BR BKN002 BKN005 07/06 Q1032  
EGNM 180950Z 05006KT 360V090 3800 BR FEW001 SCT002 BKN005 07/06 Q1031   
EGNM 180920Z 05005KT 360V090 3800 BR SCT002 BKN005 06/06 Q1032  
EGNM 180850Z 05005KT 010V100 3800 BR SCT003 BKN005 06/06 Q1032  
EGNM 180820Z 06006KT 010V110 3500 BR SCT003 BKN005 06/06 Q1032  
EGNM 180750Z 06005KT 010V110 3500 BR SCT003 BKN005 06/06 Q1032  
EGNM 180720Z 06005KT 010V100 3500 BR SCT003 BKN006 06/05 Q1031  
EGNM 180650Z 05005KT 360V110 3500 BR SCT003 BKN006 05/05 Q1031  
EGNM 180620Z 04005KT 010V090 3500 BR SCT003 BKN008 05/05 Q1031  
EGNM 180550Z 05004KT 010V100 2500 BR SCT003 BKN008 05/05 Q1031  
EGNM 180520Z 04005KT 360V080 1200 BCFG FEW001 BKN003 04/04 Q1031
EGNM 180450Z 04005KT 360V090 0600 R32/1100 FG VV/// 05/05 Q1031 
EGNM 180420Z 04006KT 350V090 0400 FG VV/// 05/05 Q1031  
EGNM 180350Z 05005KT 020V100 0450 FG VV/// 05/05 Q1031  
EGNM 180320Z 05005KT 010V090 0300 FG VV/// 05/05 Q1031  
EGNM 180250Z 05005KT 010V090 0400 FG VV/// 05/05 Q1031  
EGNM 180220Z 05005KT 010V100 0400 FG VV/// 05/05 Q1031  
EGNM 180150Z 06005KT 360V090 0450 R32/0375 FG VV/// 05/05 Q1031 
EGNM 180120Z 05004KT 020V100 0400 R32/0350 FG VV/// 05/05 Q1031 
EGNM 180050Z 06005KT 030V090 0400 R32/0400 FG VV/// 06/05 Q1031 
EGNM 180020Z 07005KT 030V100 0400 R32/0400 FG VV/// 06/06 Q1031 
EGNM 172350Z 07005KT 020V100 0400 R32/0400 FG VV/// 06/06 Q1031 
EGNM 172320Z 06005KT 020V110 0400 R32/0450 FG VV/// 06/06 Q1031 
EGNM 172250Z 07005KT 030V110 0400 R32/0375 FG VV/// 06/06 Q1031 
EGNM 172220Z 07006KT 050V120 0800 R32/0600 FG VV/// 06/06 Q1031 
EGNM 172150Z 09008KT 010V160 1300 R14/P1500 BR SCT002 BKN003 06/06 Q1031
EGNM 172120Z 08007KT 010V160 1800 BR SCT002 BKN004 06/06 Q1031  
EGNM 172050Z 08007KT 010V110 1800 BR SCT003 BKN005 06/06 Q1030